Time;durP1;ratioP1;P1;durP2;ratioP2;P2;SDS_P1;SDS_P2;PMS_P1;PMS_P2;Temp;Humidity;BMP_temperature;BMP_pressure;BME280_temperature;BME280_humidity;BME280_pressure;Samples;Min_cycle;Max_cycle;Signal;HPM_P1;HPM_P2
2022/02/10 00:04:28;;;;;;;5.22;2.78;;;;;;;1.67;84.79;97260.00;2062951;28;20198;-65
2022/02/10 00:07:03;;;;;;;6.15;3.30;;;;;;;1.69;84.83;97253.06;2063384;28;20198;-65
2022/02/10 00:21:13;;;;;;;7.15;3.00;;;;;;;1.32;86.94;97246.13;2022513;29;20228;-65
2022/02/10 00:22:28;;;;;;;6.70;3.58;;;;;;;1.30;87.08;97241.91;2022501;29;20284;-65
2022/02/10 00:35:39;;;;;;;4.72;2.22;;;;;;;1.31;86.12;97239.28;2052521;28;20203;-65
2022/02/10 00:36:51;;;;;;;8.20;2.80;;;;;;;1.30;86.11;97224.66;2054513;28;20501;-65
2022/02/10 00:37:59;;;;;;;5.13;2.60;;;;;;;1.30;85.89;97229.84;2053900;28;20559;-65
2022/02/10 00:39:15;;;;;;;7.53;2.70;;;;;;;0.72;86.35;97241.34;2054270;28;20226;-65
2022/02/10 00:40:20;;;;;;;5.10;2.28;;;;;;;0.79;87.25;97250.69;2045889;28;20210;-65
2022/02/10 00:41:22;;;;;;;6.63;3.00;;;;;;;1.13;86.46;97231.94;2045943;28;20671;-65
2022/02/10 00:42:23;;;;;;;6.20;2.75;;;;;;;1.16;86.40;97229.28;2053600;28;20200;-65
2022/02/10 00:43:25;;;;;;;3.38;2.33;;;;;;;1.23;85.96;97240.31;2054342;28;20195;-65
2022/02/10 00:44:27;;;;;;;5.82;2.35;;;;;;;1.18;85.31;97240.44;2054329;28;20668;-65
2022/02/10 00:45:32;;;;;;;6.47;2.45;;;;;;;1.09;86.03;97236.28;2053904;28;20765;-65
2022/02/10 00:46:33;;;;;;;5.43;2.63;;;;;;;1.07;85.28;97230.31;2053013;28;20195;-65
2022/02/10 00:47:50;;;;;;;4.13;2.70;;;;;;;0.97;85.54;97210.75;2054291;28;20210;-65
2022/02/10 00:48:52;;;;;;;4.60;2.50;;;;;;;1.21;85.38;97231.75;2054314;28;20218;-65
2022/02/10 00:49:53;;;;;;;8.45;2.90;;;;;;;1.13;85.17;97229.34;2054347;28;20537;-65
2022/02/10 00:50:56;;;;;;;5.32;2.63;;;;;;;1.08;85.33;97210.53;2045589;28;20231;-65
2022/02/10 00:51:57;;;;;;;6.43;2.60;;;;;;;1.31;85.27;97228.97;2038675;29;20208;-65
2022/02/10 00:53:13;;;;;;;3.75;2.42;;;;;;;1.31;84.78;97226.38;2046564;28;20240;-66
2022/02/10 00:54:18;;;;;;;4.72;2.30;;;;;;;1.29;85.15;97228.13;2054354;28;20198;-65
2022/02/10 00:55:24;;;;;;;8.80;2.47;;;;;;;1.24;84.63;97229.97;2053944;28;20199;-65
2022/02/10 00:56:26;;;;;;;7.72;3.00;;;;;;;0.93;85.62;97209.97;2054304;28;20204;-65
2022/02/10 00:57:27;;;;;;;3.67;2.20;;;;;;;1.06;85.94;97226.06;2046264;29;20203;-66
2022/02/10 00:58:33;;;;;;;4.20;2.33;;;;;;;1.15;85.84;97232.75;2046444;28;20691;-65
2022/02/10 01:14:31;;;;;;;9.60;2.45;;;;;;;0.83;86.16;97210.22;2062898;28;20222;-65
2022/02/10 01:29:57;;;;;;;7.43;3.03;;;;;;;1.07;84.54;97214.00;2062710;28;20205;-65
2022/02/10 01:30:59;;;;;;;4.97;2.47;;;;;;;0.90;84.86;97210.06;2063158;28;20218;-65
2022/02/10 01:32:00;;;;;;;5.88;2.35;;;;;;;0.88;85.38;97198.06;2063260;28;20202;-65
2022/02/10 01:33:06;;;;;;;4.47;2.22;;;;;;;0.94;85.58;97211.69;2063680;28;20205;-65
2022/02/10 01:34:08;;;;;;;4.43;2.13;;;;;;;1.05;85.33;97213.19;2063462;28;20209;-65
2022/02/10 01:35:13;;;;;;;8.70;2.00;;;;;;;1.06;84.74;97210.56;2062603;28;20198;-65
2022/02/10 01:36:14;;;;;;;5.78;3.25;;;;;;;1.08;85.00;97193.34;2063595;28;20391;-65
2022/02/10 01:37:17;;;;;;;8.43;3.20;;;;;;;1.06;84.23;97196.81;2065053;28;20246;-65
2022/02/10 01:38:19;;;;;;;6.68;3.13;;;;;;;1.00;84.48;97197.81;2065546;28;20205;-65
2022/02/10 01:40:22;;;;;;;8.32;3.70;;;;;;;1.19;84.50;97201.66;2071535;28;20203;-64
2022/02/10 02:05:42;;;;;;;4.15;2.40;;;;;;;2.10;78.46;97171.13;2046938;28;20254;-64
2022/02/10 02:06:46;;;;;;;7.57;2.08;;;;;;;2.05;78.24;97160.03;2046887;29;20192;-64
2022/02/10 02:07:48;;;;;;;7.85;2.47;;;;;;;2.09;77.82;97166.00;2047650;29;20204;-64
2022/02/10 02:08:51;;;;;;;13.00;2.00;;;;;;;2.25;77.09;97166.44;2046906;29;20208;-64
2022/02/10 02:09:53;;;;;;;12.70;2.00;;;;;;;2.21;77.42;97163.06;2047652;29;20200;-64
2022/02/10 02:10:55;;;;;;;4.65;2.55;;;;;;;2.28;77.24;97168.94;2047100;28;20219;-65
2022/02/10 02:11:57;;;;;;;4.50;2.50;;;;;;;2.30;76.53;97164.59;2047580;29;20590;-64
2022/02/10 02:13:02;;;;;;;5.22;2.40;;;;;;;2.38;76.20;97160.88;2047447;29;20286;-64
2022/02/10 02:14:03;;;;;;;5.35;2.13;;;;;;;2.47;75.08;97154.63;2046789;29;20573;-64
2022/02/10 02:15:05;;;;;;;4.18;2.33;;;;;;;2.51;75.19;97157.94;2047382;29;20323;-64
2022/02/10 02:16:07;;;;;;;7.03;1.90;;;;;;;2.47;74.90;97151.19;2046864;28;20231;-64
2022/02/10 02:17:08;;;;;;;7.30;2.40;;;;;;;2.47;75.29;97148.59;2047439;29;20203;-64
2022/02/10 02:18:09;;;;;;;4.97;2.05;;;;;;;2.30;76.68;97152.50;2047451;29;20267;-64
2022/02/10 02:19:11;;;;;;;4.60;2.40;;;;;;;2.13;77.76;97145.19;2039661;29;20622;-64
2022/02/10 02:20:13;;;;;;;4.70;2.20;;;;;;;1.74;79.48;97145.31;2039309;29;20472;-64
2022/02/10 02:21:18;;;;;;;3.85;2.10;;;;;;;1.76;80.48;97145.28;2047302;29;20199;-64
2022/02/10 02:22:20;;;;;;;5.40;2.50;;;;;;;1.56;80.23;97110.47;2047531;29;20912;-64
2022/02/10 02:23:24;;;;;;;7.40;3.05;;;;;;;1.79;78.59;97147.81;2047229;29;20204;-64
2022/02/10 02:24:26;;;;;;;5.78;2.20;;;;;;;1.85;78.61;97145.06;2047293;29;20207;-64
2022/02/10 02:25:27;;;;;;;4.38;2.15;;;;;;;2.02;77.76;97146.34;2047054;28;20614;-64
2022/02/10 02:26:29;;;;;;;3.08;2.17;;;;;;;2.07;77.63;97147.94;2047391;29;20203;-64
2022/02/10 02:27:44;;;;;;;6.03;2.47;;;;;;;1.95;77.73;97127.59;2047449;29;20204;-64
2022/02/10 02:28:51;;;;;;;4.03;2.22;;;;;;;2.08;76.96;97134.13;2047562;29;20802;-64
2022/02/10 02:30:09;;;;;;;7.07;3.47;;;;;;;2.06;76.89;97138.50;2047327;29;20207;-64
2022/02/10 02:31:16;;;;;;;5.50;2.28;;;;;;;2.02;77.62;97126.56;2046599;29;20682;-65
2022/02/10 02:32:27;;;;;;;8.95;2.78;;;;;;;2.09;78.77;97142.72;2048102;28;20196;-64
2022/02/10 03:05:03;;;;;;;3.88;2.10;;;;;;;1.73;78.38;97122.97;2063662;28;20206;-64
2022/02/10 03:06:27;;;;;;;15.80;2.60;;;;;;;1.74;79.12;97122.06;2063638;28;20723;-64
2022/02/10 03:07:36;;;;;;;5.45;2.17;;;;;;;1.73;79.34;97115.22;2064366;28;20666;-64
2022/02/10 03:08:42;;;;;;;3.38;2.50;;;;;;;1.67;79.44;97120.56;2064450;28;20198;-64
2022/02/10 03:09:55;;;;;;;4.15;2.28;;;;;;;1.64;79.79;97123.19;2063748;28;20229;-64
2022/02/10 03:11:02;;;;;;;4.13;2.00;;;;;;;1.55;79.93;97118.28;2063539;28;20229;-64
2022/02/10 03:12:04;;;;;;;8.70;2.45;;;;;;;1.48;79.79;97127.06;2064323;28;20636;-64
2022/02/10 03:13:09;;;;;;;5.00;2.83;;;;;;;1.35;80.02;97124.78;2063586;28;20198;-64
2022/02/10 03:14:25;;;;;;;4.90;2.10;;;;;;;1.38;80.76;97124.69;2063126;28;20230;-64
2022/02/10 03:15:38;;;;;;;7.13;2.70;;;;;;;1.44;80.52;97125.44;2063356;28;20198;-65
2022/02/10 03:18:28;;;;;;;3.67;1.92;;;;;;;1.33;80.41;97115.34;2064353;28;20198;-64
2022/02/10 04:01:40;;;;;;;9.38;2.70;;;;;;;1.38;78.90;97129.00;2062683;28;20218;-64
2022/02/10 04:08:28;;;;;;;4.22;1.60;;;;;;;2.01;76.58;97127.44;2062603;28;20203;-64
2022/02/10 04:12:41;;;;;;;3.92;1.80;;;;;;;1.92;76.63;97128.53;2063842;28;20677;-64
2022/02/10 04:14:12;;;;;;;4.15;1.90;;;;;;;2.09;75.96;97117.72;2063592;28;20205;-65
2022/02/10 04:16:18;;;;;;;4.95;2.00;;;;;;;2.08;75.91;97123.81;2063587;28;20221;-64
2022/02/10 04:17:56;;;;;;;5.25;2.00;;;;;;;2.06;76.23;97119.53;2063773;28;20202;-64
2022/02/10 04:20:48;;;;;;;3.92;1.80;;;;;;;1.86;76.56;97120.06;2063770;28;20206;-65
2022/02/10 04:27:19;;;;;;;3.72;1.65;;;;;;;1.61;78.96;97133.63;2063780;28;20205;-65
2022/02/10 04:29:13;;;;;;;2.90;1.80;;;;;;;1.80;77.99;97133.97;2063791;28;20534;-64
2022/02/10 04:55:00;;;;;;;5.40;1.92;;;;;;;2.48;74.39;97089.09;2063078;28;20213;-65
2022/02/10 04:56:09;;;;;;;2.30;1.50;;;;;;;2.49;74.19;97095.97;2061533;28;20237;-65
2022/02/10 04:59:54;;;;;;;3.95;1.73;;;;;;;2.77;72.82;97089.97;2063508;28;20654;-65
2022/02/10 05:16:05;;;;;;;5.80;2.45;;;;;;;2.59;73.08;97086.19;2064747;28;20213;-65
2022/02/10 05:18:32;;;;;;;5.97;1.95;;;;;;;2.47;73.79;97087.41;2064208;28;20199;-65
2022/02/10 05:21:45;;;;;;;5.05;1.70;;;;;;;2.53;73.37;97087.22;2064682;28;20213;-65
2022/02/10 05:34:20;;;;;;;7.85;1.65;;;;;;;2.43;73.50;97072.88;2055890;28;20444;-65
2022/02/10 05:35:34;;;;;;;2.67;1.73;;;;;;;2.43;73.60;97065.13;2055055;28;20205;-65
2022/02/10 05:36:39;;;;;;;3.40;1.80;;;;;;;2.38;73.91;97067.81;2060041;28;20201;-65
2022/02/10 05:37:42;;;;;;;8.85;1.70;;;;;;;2.30;74.09;97074.09;2064192;28;20681;-65
2022/02/10 05:38:52;;;;;;;6.63;2.10;;;;;;;2.11;74.59;97069.44;2065097;28;20210;-65
2022/02/10 05:39:57;;;;;;;5.22;2.28;;;;;;;2.15;74.88;97065.88;2062935;28;20202;-65
2022/02/10 05:48:23;;;;;;;2.90;1.60;;;;;;;2.37;73.96;97070.44;2060065;28;20205;-65
2022/02/10 05:58:04;;;;;;;5.10;2.00;;;;;;;2.48;73.74;97078.75;2064415;28;20227;-65
2022/02/10 06:39:33;;;;;;;4.78;1.55;;;;;;;2.63;75.02;97085.22;2064515;28;20557;-66
2022/02/10 06:52:12;;;;;;;3.20;2.00;;;;;;;2.97;74.70;97082.44;2064415;28;20225;-66
2022/02/10 06:54:29;;;;;;;6.38;2.35;;;;;;;3.19;74.12;97081.78;2064381;28;20326;-66
2022/02/10 07:02:39;;;;;;;8.63;2.60;;;;;;;3.22;73.98;97089.47;2063616;28;20274;-66
2022/02/10 07:04:48;;;;;;;4.05;2.10;;;;;;;4.69;69.03;97091.31;2064257;28;20257;-66
2022/02/10 07:11:04;;;;;;;5.05;1.95;;;;;;;5.52;66.12;97093.25;2064268;28;20217;-67
2022/02/10 07:49:40;;;;;;;6.30;1.90;;;;;;;8.64;55.05;97063.94;2062665;28;20195;-63
2022/02/10 07:54:30;;;;;;;12.63;2.05;;;;;;;8.83;55.12;97069.84;2063903;28;20233;-63
2022/02/10 08:00:23;;;;;;;7.20;2.80;;;;;;;8.59;56.24;97071.19;2063360;28;20365;-63
2022/02/10 08:49:41;;;;;;;9.13;2.70;;;;;;;10.16;52.36;97068.44;2063596;28;20205;-63
2022/02/10 08:51:29;;;;;;;7.15;2.70;;;;;;;11.96;48.26;97090.41;2061013;28;20229;-63
2022/02/10 09:03:31;;;;;;;8.90;3.40;;;;;;;12.75;46.95;97099.91;2063026;28;20198;-64
2022/02/10 09:04:47;;;;;;;5.00;2.75;;;;;;;11.83;48.91;97106.94;2063087;28;20209;-64
2022/02/10 09:25:46;;;;;;;8.30;3.63;;;;;;;11.41;50.02;97031.91;2045396;29;20706;-64
2022/02/10 09:56:49;;;;;;;10.25;4.18;;;;;;;9.19;57.50;97109.72;2063194;28;20206;-63
2022/02/10 09:57:58;;;;;;;8.93;4.00;;;;;;;9.22;57.99;97120.84;2063199;28;20233;-63
2022/02/10 10:00:18;;;;;;;6.78;3.80;;;;;;;12.10;49.95;97118.38;2064413;28;20562;-63
2022/02/10 10:01:48;;;;;;;4.95;3.08;;;;;;;12.51;48.02;97106.88;2063741;28;20202;-63
2022/02/10 10:04:01;;;;;;;18.38;3.72;;;;;;;10.29;53.41;97116.50;2064773;28;20225;-63
2022/02/10 10:06:43;;;;;;;6.97;3.45;;;;;;;10.24;54.03;97117.72;2063428;28;20219;-63
2022/02/10 10:18:20;;;;;;;10.52;3.55;;;;;;;11.05;51.76;97132.91;2046243;29;20203;-63
2022/02/10 10:18:50;;;;;;;5.32;3.33;;;;;;;10.95;52.67;97134.41;2043121;29;20206;-63
2022/02/10 10:50:29;;;;;;;7.05;4.07;;;;;;;11.32;54.08;97121.63;2033152;28;20617;-65
2022/02/10 10:53:04;;;;;;;8.25;3.83;;;;;;;12.56;50.29;97118.72;2064569;28;20210;-65
2022/02/10 10:54:31;;;;;;;8.35;3.83;;;;;;;13.32;47.95;97124.00;2064395;28;20713;-65
2022/02/10 10:56:51;;;;;;;11.90;3.67;;;;;;;12.57;48.60;97125.66;2063828;28;20198;-65
2022/02/10 10:57:55;;;;;;;15.45;4.60;;;;;;;11.73;51.22;97136.50;2063618;28;20254;-65
2022/02/10 11:00:29;;;;;;;11.55;3.80;;;;;;;11.12;53.43;97128.16;2064550;28;20200;-65
2022/02/10 11:23:05;;;;;;;10.07;4.03;;;;;;;10.29;57.47;97111.28;2063686;28;20252;-65
2022/02/10 11:36:46;;;;;;;10.32;4.93;;;;;;;8.46;62.93;97107.53;2063736;28;20199;-65
2022/02/10 11:42:09;;;;;;;11.75;5.15;;;;;;;8.19;64.78;97109.75;2064001;28;20549;-65
2022/02/10 11:44:02;;;;;;;15.07;5.32;;;;;;;8.51;63.39;97101.16;2064199;28;20213;-65
2022/02/10 11:46:51;;;;;;;11.43;5.15;;;;;;;7.88;65.95;97106.94;2063695;28;20225;-65
2022/02/10 12:00:15;;;;;;;14.48;5.60;;;;;;;7.52;68.38;97120.00;2050422;28;20196;-71
2022/02/10 12:29:32;;;;;;;15.18;5.30;;;;;;;7.25;69.44;97112.63;2063788;28;20557;-70
2022/02/10 13:30:44;;;;;;;14.60;5.97;;;;;;;6.83;73.80;97094.63;2063172;28;20199;-68
2022/02/10 14:13:26;;;;;;;12.10;5.25;;;;;;;6.09;76.68;97134.28;2055429;28;20644;-69
2022/02/10 14:14:18;;;;;;;14.68;6.78;;;;;;;6.16;77.23;97130.50;2056802;28;20199;-67
2022/02/10 14:15:39;;;;;;;28.13;7.05;;;;;;;6.25;76.96;97131.88;2064166;28;20252;-69
2022/02/10 14:16:48;;;;;;;76.70;9.48;;;;;;;6.31;76.89;97134.19;2064750;28;20199;-69
2022/02/10 14:18:04;;;;;;;18.65;6.63;;;;;;;6.16;76.73;97120.13;2064814;28;20661;-70
2022/02/10 14:19:47;;;;;;;42.47;6.53;;;;;;;6.20;76.67;97133.84;2064611;28;20225;-70
2022/02/10 14:20:53;;;;;;;13.60;5.05;;;;;;;6.11;76.45;97133.28;2062712;28;20225;-69
2022/02/10 14:22:05;;;;;;;9.90;5.28;;;;;;;6.19;76.40;97124.31;2064050;28;20199;-70
2022/02/10 14:25:36;;;;;;;15.52;6.22;;;;;;;6.19;76.61;97130.38;2064391;28;20196;-69
2022/02/10 14:26:53;;;;;;;14.20;5.40;;;;;;;6.09;76.95;97135.13;2064693;28;20210;-69
2022/02/10 14:27:54;;;;;;;17.52;5.47;;;;;;;5.97;77.18;97135.63;2067671;28;20729;-71
2022/02/10 14:28:56;;;;;;;31.00;15.57;;;;;;;5.88;77.13;97123.84;2066988;28;20202;-69
2022/02/10 14:29:58;;;;;;;19.70;6.53;;;;;;;5.99;76.93;97136.41;2064754;28;20209;-70
2022/02/10 14:31:02;;;;;;;19.40;7.45;;;;;;;5.92;76.86;97137.56;2064147;28;20357;-72
2022/02/10 14:32:04;;;;;;;12.48;5.63;;;;;;;5.96;76.86;97139.16;2064597;28;20555;-72
2022/02/10 14:33:06;;;;;;;19.88;6.05;;;;;;;5.94;76.91;97143.56;2061642;28;20198;-72
2022/02/10 14:34:07;;;;;;;14.02;5.95;;;;;;;5.93;77.28;97136.66;2064490;28;20210;-72
2022/02/10 14:35:17;;;;;;;11.40;5.80;;;;;;;6.00;76.90;97132.06;2064379;28;20216;-72
2022/02/10 14:37:49;;;;;;;11.15;5.57;;;;;;;6.10;76.37;97138.59;2064602;28;20207;-72
2022/02/10 15:14:21;;;;;;;12.38;5.30;;;;;;;5.28;77.01;97092.50;2064410;28;20207;-72
2022/02/10 15:32:06;;;;;;;12.85;5.47;;;;;;;5.10;77.45;97132.19;2062124;28;20222;-71
2022/02/10 15:47:01;;;;;;;8.23;3.70;;;;;;;5.01;74.29;97127.31;2063684;28;20221;-71
2022/02/10 15:55:16;;;;;;;11.60;5.15;;;;;;;4.99;72.64;97135.16;2063643;28;20198;-71
2022/02/10 16:17:07;;;;;;;9.07;4.88;;;;;;;4.92;71.42;97113.78;2064002;28;20372;-63
2022/02/10 16:18:13;;;;;;;12.18;4.70;;;;;;;4.92;71.27;97115.53;2064109;28;20194;-64
2022/02/10 16:19:14;;;;;;;11.63;3.97;;;;;;;4.74;71.71;97093.72;2064170;28;20400;-63
2022/02/10 16:20:20;;;;;;;8.63;3.13;;;;;;;4.84;71.68;97109.78;2063497;28;20198;-63
2022/02/10 16:21:38;;;;;;;8.00;3.70;;;;;;;4.84;71.54;97109.78;2063883;28;20195;-63
2022/02/10 16:22:57;;;;;;;5.95;3.08;;;;;;;4.87;70.12;97109.69;2063100;28;20698;-63
2022/02/10 16:24:02;;;;;;;6.85;3.33;;;;;;;4.87;70.32;97107.09;2064090;28;20202;-63
2022/02/10 16:25:08;;;;;;;6.45;3.13;;;;;;;4.87;70.30;97115.72;2062299;28;20816;-63
2022/02/10 16:26:15;;;;;;;8.68;2.88;;;;;;;4.92;70.10;97121.59;2063471;28;20229;-63
2022/02/10 16:27:23;;;;;;;7.93;4.03;;;;;;;4.90;71.26;97119.94;2063928;28;20206;-63
2022/02/10 16:28:29;;;;;;;8.05;3.55;;;;;;;4.87;70.36;97105.31;2063980;28;20650;-63
2022/02/10 16:29:32;;;;;;;7.50;3.15;;;;;;;4.89;70.77;97113.91;2063074;28;20194;-63
2022/02/10 16:30:36;;;;;;;5.55;3.15;;;;;;;4.87;71.02;97110.53;2063003;28;20218;-63
2022/02/10 16:31:42;;;;;;;7.10;3.47;;;;;;;4.89;70.79;97108.72;2063949;28;20285;-63
2022/02/10 16:32:49;;;;;;;5.10;3.17;;;;;;;4.90;70.90;97104.34;2062920;28;20305;-63
2022/02/10 16:33:57;;;;;;;4.63;2.58;;;;;;;4.89;70.70;97103.50;2063963;28;20206;-63
2022/02/10 16:35:04;;;;;;;4.95;3.33;;;;;;;4.77;70.81;97079.81;2063556;28;20206;-63
2022/02/10 16:36:17;;;;;;;11.73;4.03;;;;;;;4.89;70.87;97100.09;2063118;28;20218;-63
2022/02/10 16:37:24;;;;;;;6.25;3.45;;;;;;;4.86;70.95;97097.59;2062623;28;20599;-63
2022/02/10 16:38:32;;;;;;;8.13;3.50;;;;;;;4.82;71.07;97085.63;2063612;28;20209;-63
2022/02/10 16:39:41;;;;;;;5.05;3.10;;;;;;;4.85;70.88;97090.72;2062237;28;20199;-63
2022/02/10 16:40:47;;;;;;;7.25;2.65;;;;;;;4.84;70.90;97092.50;2063113;28;20218;-63
2022/02/10 16:41:54;;;;;;;5.07;2.45;;;;;;;4.86;70.51;97092.41;2063365;28;20206;-63
2022/02/10 16:43:00;;;;;;;4.68;2.42;;;;;;;4.83;70.51;97087.34;2063521;28;20654;-63
2022/02/10 16:44:08;;;;;;;6.93;3.17;;;;;;;4.82;70.94;97083.91;2063655;28;20252;-63
2022/02/10 16:45:16;;;;;;;3.97;2.25;;;;;;;4.83;70.94;97088.19;2063410;28;20237;-63
2022/02/10 16:46:22;;;;;;;4.78;2.70;;;;;;;4.84;70.61;97096.81;2064552;28;20194;-64
2022/02/10 16:47:28;;;;;;;5.13;2.83;;;;;;;4.85;70.80;97093.31;2062877;28;20203;-63
2022/02/10 16:48:36;;;;;;;5.63;3.03;;;;;;;4.82;70.61;97080.44;2063774;28;20202;-63
2022/02/10 16:49:50;;;;;;;7.05;2.70;;;;;;;4.82;70.66;97080.44;2062797;28;20214;-63
2022/02/10 16:50:56;;;;;;;6.82;2.70;;;;;;;4.87;70.25;97088.91;2063054;28;20455;-63
2022/02/10 16:52:05;;;;;;;4.88;2.97;;;;;;;4.89;70.77;97094.91;2062986;28;20443;-63
2022/02/10 16:53:16;;;;;;;7.95;3.25;;;;;;;4.69;70.50;97069.72;2063452;28;20795;-64
2022/02/10 16:54:34;;;;;;;5.20;2.72;;;;;;;4.86;70.73;97093.28;2063708;28;20559;-63
2022/02/10 16:58:38;;;;;;;11.80;4.10;;;;;;;4.80;70.53;97098.66;2050098;28;20219;-63
2022/02/10 17:05:00;;;;;;;20.02;9.30;;;;;;;4.88;70.12;97099.25;2062600;28;20245;-63
2022/02/10 17:17:01;;;;;;;10.50;3.30;;;;;;;4.87;69.96;97107.09;2062055;28;20218;-64
2022/02/10 17:26:00;;;;;;;4.65;2.85;;;;;;;4.74;70.42;97101.50;2062717;28;20232;-64
2022/02/10 17:27:09;;;;;;;6.18;3.67;;;;;;;4.78;70.01;97103.06;2062876;28;20194;-64
2022/02/10 17:28:16;;;;;;;4.00;2.55;;;;;;;4.80;69.98;97103.84;2062714;28;20237;-69
2022/02/10 17:33:33;;;;;;;5.88;2.60;;;;;;;4.76;70.39;97110.06;2062787;28;20194;-70
2022/02/10 17:43:59;;;;;;;8.07;3.10;;;;;;;4.74;69.98;97096.31;2062595;28;20195;-70
2022/02/10 17:53:02;;;;;;;7.32;2.53;;;;;;;4.64;69.54;97084.59;2063142;28;20198;-69
2022/02/10 17:54:04;;;;;;;6.00;2.80;;;;;;;4.73;69.58;97102.41;2063209;28;20202;-69
2022/02/10 17:55:09;;;;;;;9.45;2.50;;;;;;;4.68;69.67;97094.78;2062985;28;20203;-69
2022/02/10 17:56:11;;;;;;;7.43;2.97;;;;;;;4.74;69.35;97098.91;2063006;28;20257;-69
2022/02/10 17:57:14;;;;;;;4.40;2.45;;;;;;;4.73;69.38;97099.81;2063537;28;20674;-69
2022/02/10 17:58:16;;;;;;;4.43;2.40;;;;;;;4.74;69.57;97102.38;2063113;28;20300;-69
2022/02/10 17:59:20;;;;;;;6.43;2.72;;;;;;;4.73;69.50;97102.41;2063561;28;20214;-69
2022/02/10 18:00:25;;;;;;;4.75;2.53;;;;;;;4.73;69.57;97105.00;2063128;28;20506;-69
2022/02/10 18:01:28;;;;;;;5.30;2.80;;;;;;;4.80;69.64;97105.63;2063314;28;20199;-70
2022/02/10 18:02:29;;;;;;;6.13;3.33;;;;;;;4.74;69.66;97107.56;2063375;28;20206;-70
2022/02/10 18:03:31;;;;;;;6.88;3.72;;;;;;;4.72;69.70;97116.28;2063430;28;20205;-69
2022/02/10 18:04:33;;;;;;;3.88;2.38;;;;;;;4.68;69.79;97099.13;2063552;28;20198;-70
2022/02/10 18:06:10;;;;;;;4.03;2.83;;;;;;;4.69;69.86;97103.44;2062982;28;20225;-69
2022/02/10 18:07:05;;;;;;;7.07;2.63;;;;;;;4.64;69.98;97097.56;2062607;28;20206;-70
2022/02/10 18:08:10;;;;;;;4.70;2.42;;;;;;;4.68;69.87;97099.13;2063432;28;20598;-70
2022/02/10 18:11:13;;;;;;;4.57;2.70;;;;;;;4.65;69.88;97102.69;2061701;28;20669;-69
2022/02/10 18:13:27;;;;;;;10.50;3.80;;;;;;;4.65;69.77;97101.88;2063055;28;20199;-69
2022/02/10 18:15:50;;;;;;;8.30;3.55;;;;;;;4.61;70.06;97108.91;2062347;28;20773;-69
2022/02/10 18:16:57;;;;;;;7.25;4.00;;;;;;;4.41;69.78;97070.75;2063139;28;20218;-70
2022/02/10 18:18:03;;;;;;;4.45;3.15;;;;;;;4.58;70.06;97102.97;2063565;28;20198;-69
2022/02/10 18:20:16;;;;;;;5.57;3.72;;;;;;;3.94;70.27;96998.13;2064636;28;20206;-69
2022/02/10 18:22:38;;;;;;;8.73;4.38;;;;;;;4.42;70.73;97093.16;2064809;28;20199;-69
2022/02/10 18:26:12;;;;;;;7.65;3.60;;;;;;;4.44;70.77;97101.72;2063893;28;20222;-70
2022/02/10 18:27:45;;;;;;;8.68;4.00;;;;;;;4.42;70.90;97111.31;2064037;28;20199;-69
2022/02/10 18:35:23;;;;;;;7.15;4.07;;;;;;;4.32;71.45;97097.84;2055368;28;20199;-69
2022/02/10 19:07:19;;;;;;;17.05;6.20;;;;;;;4.36;72.58;97098.56;2054184;28;20234;-84
2022/02/10 19:08:25;;;;;;;9.88;4.45;;;;;;;4.19;73.53;97106.94;2057355;28;20214;-69
2022/02/10 19:09:35;;;;;;;17.80;6.72;;;;;;;4.20;73.60;97102.63;2064421;28;20572;-69
2022/02/10 19:10:44;;;;;;;10.27;4.70;;;;;;;4.26;73.23;97105.00;2063256;28;20252;-69
2022/02/10 19:11:48;;;;;;;10.32;4.93;;;;;;;4.28;72.48;97091.06;2064327;28;20202;-69
2022/02/10 19:12:53;;;;;;;11.45;4.97;;;;;;;4.29;72.53;97099.69;2064520;28;20202;-70
2022/02/10 19:13:56;;;;;;;15.00;8.30;;;;;;;4.39;72.28;97102.78;2062710;28;20665;-69
2022/02/10 19:15:20;;;;;;;14.80;6.80;;;;;;;4.50;72.00;97096.31;2063671;28;20202;-70
2022/02/10 19:16:23;;;;;;;9.93;5.05;;;;;;;4.34;72.51;97090.00;2063515;28;20214;-69
2022/02/10 19:17:27;;;;;;;11.98;5.50;;;;;;;4.19;73.16;97093.13;2063714;28;20301;-69
2022/02/10 19:18:28;;;;;;;13.38;5.60;;;;;;;4.11;73.87;97098.59;2064497;28;20584;-69
2022/02/10 19:19:30;;;;;;;8.25;5.07;;;;;;;4.16;73.73;97099.28;2064750;28;20202;-69
2022/02/10 19:20:33;;;;;;;11.95;6.25;;;;;;;4.23;73.16;97099.91;2063098;28;20233;-70
2022/02/10 19:21:35;;;;;;;10.75;4.80;;;;;;;4.05;73.60;97101.41;2063741;28;20596;-69
2022/02/10 19:22:38;;;;;;;9.60;5.68;;;;;;;4.03;74.34;97085.06;2064572;28;20213;-69
2022/02/10 19:23:39;;;;;;;14.40;7.72;;;;;;;3.92;74.76;97077.63;2064245;28;20203;-69
2022/02/10 19:24:41;;;;;;;18.75;8.00;;;;;;;3.97;74.86;97083.53;2064414;28;20199;-69
2022/02/10 19:25:42;;;;;;;15.88;8.55;;;;;;;4.03;74.80;97080.72;2063964;28;20219;-66
2022/02/10 19:26:50;;;;;;;18.95;8.52;;;;;;;3.92;75.05;97068.16;2064356;28;20202;-66
2022/02/10 19:27:52;;;;;;;16.05;7.20;;;;;;;4.09;74.89;97087.44;2064276;28;20714;-66
2022/02/10 19:28:53;;;;;;;14.90;6.93;;;;;;;4.02;74.96;97086.81;2064310;28;20237;-66
2022/02/10 19:29:58;;;;;;;11.10;5.75;;;;;;;3.95;75.62;97082.72;2064440;28;20203;-65
2022/02/10 19:31:01;;;;;;;14.95;6.35;;;;;;;3.95;75.39;97078.38;2063446;28;20222;-66
2022/02/10 19:32:06;;;;;;;11.15;5.93;;;;;;;3.97;75.34;97080.94;2063817;28;20210;-66
2022/02/10 19:33:12;;;;;;;14.95;5.43;;;;;;;3.96;75.46;97084.44;2063856;28;20587;-66
2022/02/10 19:34:15;;;;;;;11.73;5.45;;;;;;;3.99;75.32;97086.06;2064159;28;20202;-66
2022/02/10 19:35:38;;;;;;;9.38;5.35;;;;;;;4.02;75.00;97081.63;2063915;28;20291;-66
2022/02/10 19:36:40;;;;;;;10.48;5.05;;;;;;;4.02;75.15;97083.34;2064157;28;20206;-66
2022/02/10 19:37:44;;;;;;;15.68;6.28;;;;;;;4.00;74.81;97059.22;2064448;28;20210;-66
2022/02/10 19:38:45;;;;;;;10.80;4.40;;;;;;;4.06;74.82;97075.44;2063531;28;20209;-66
2022/02/10 19:39:56;;;;;;;8.55;4.32;;;;;;;4.06;74.26;97070.25;2062487;28;20206;-66
2022/02/10 19:40:58;;;;;;;9.25;4.47;;;;;;;4.27;73.12;97071.25;2063797;28;20218;-66
2022/02/10 19:42:20;;;;;;;6.78;4.07;;;;;;;4.18;73.79;97073.31;2064342;28;20417;-66
2022/02/10 19:43:22;;;;;;;6.63;3.90;;;;;;;4.09;74.26;97075.31;2064142;28;20645;-66
2022/02/10 19:44:24;;;;;;;9.98;4.55;;;;;;;4.06;74.08;97077.19;2064213;28;20202;-66
2022/02/10 19:45:26;;;;;;;9.73;3.45;;;;;;;4.07;73.72;97076.28;2063759;28;20419;-66
2022/02/10 19:46:28;;;;;;;14.48;7.53;;;;;;;4.00;73.25;97048.88;2062708;28;20597;-66
2022/02/10 19:47:31;;;;;;;73.53;41.65;;;;;;;4.24;72.35;97073.09;2064116;28;20206;-66
2022/02/10 19:48:33;;;;;;;35.80;19.15;;;;;;;4.08;73.66;97072.78;2064134;28;20726;-66
2022/02/10 19:49:37;;;;;;;11.27;6.65;;;;;;;4.03;73.86;97075.53;2064015;28;20204;-66
2022/02/10 19:50:38;;;;;;;7.18;3.58;;;;;;;4.12;73.19;97070.03;2062643;28;20280;-66
2022/02/10 19:51:40;;;;;;;9.13;4.57;;;;;;;4.19;72.91;97073.25;2064138;28;20203;-66
2022/02/10 19:52:45;;;;;;;11.38;6.10;;;;;;;4.36;71.92;97062.28;2064233;28;20195;-66
2022/02/10 19:53:48;;;;;;;21.58;9.93;;;;;;;4.39;71.82;97066.50;2064021;28;20202;-66
2022/02/10 19:54:53;;;;;;;36.08;20.55;;;;;;;4.44;71.59;97068.00;2064153;28;20206;-66
2022/02/10 19:55:55;;;;;;;38.22;25.83;;;;;;;4.38;71.54;97060.47;2062665;28;20245;-66
2022/02/10 19:56:58;;;;;;;5.70;3.53;;;;;;;4.27;71.88;97057.41;2062247;28;20682;-67
2022/02/10 19:58:06;;;;;;;39.00;21.30;;;;;;;4.46;71.54;97062.78;2067662;28;20238;-68
2022/02/10 19:59:13;;;;;;;41.00;20.30;;;;;;;4.27;71.54;97042.72;2066599;28;20197;-67
2022/02/10 20:00:20;;;;;;;86.18;39.78;;;;;;;4.36;71.69;97062.28;2063754;28;20202;-63
2022/02/10 20:01:23;;;;;;;58.65;27.00;;;;;;;4.21;72.52;97055.88;2063088;28;20195;-67
2022/02/10 20:02:25;;;;;;;24.65;13.77;;;;;;;4.20;72.71;97063.75;2063551;28;20205;-63
2022/02/10 20:03:32;;;;;;;36.50;16.42;;;;;;;4.07;73.08;97060.72;2063498;28;20234;-63
2022/02/10 20:04:34;;;;;;;24.75;10.32;;;;;;;4.18;72.72;97057.75;2063805;28;20210;-68
2022/02/10 20:05:35;;;;;;;26.27;12.93;;;;;;;4.19;73.71;97068.06;2063493;28;20709;-68
2022/02/10 20:06:37;;;;;;;10.45;5.15;;;;;;;4.19;73.26;97062.88;2063182;28;20218;-67
2022/02/10 20:07:41;;;;;;;26.58;15.45;;;;;;;4.32;73.00;97052.91;2055564;28;20646;-68
2022/02/10 20:08:44;;;;;;;45.97;21.73;;;;;;;4.17;73.05;97051.72;2062544;28;20203;-67
2022/02/10 20:09:51;;;;;;;11.55;7.68;;;;;;;4.04;74.20;97061.69;2063735;28;20202;-68
2022/02/10 20:10:54;;;;;;;9.75;5.90;;;;;;;3.98;74.19;97056.72;2062958;28;20625;-67
2022/02/10 20:11:57;;;;;;;9.27;4.20;;;;;;;3.96;74.41;97053.34;2063251;28;20198;-67
2022/02/10 20:12:59;;;;;;;7.15;4.30;;;;;;;4.16;74.03;97061.25;2063885;28;20194;-67